FW1768 Weather Reports


Display with metric or nautical units.
time (UTC)temp
F
wind
direction
speed
MPH
gust
MPH
rain 1hr
in
rain 24hr
in
rain mn
in
humidity
%
barometer
mb
20190217153144 34 121 1.0 6.0 0.00 0.00 0.00 52 1023.0
20190217151708 34 140 0.0 4.0 0.00 0.00 0.00 54 1022.8
20190217150113 33 72 0.0 5.0 0.00 0.00 0.00 55 1023.1
20190217144607 32 182 1.0 4.0 0.00 0.00 0.00 57 1022.9
20190217143106 31 84 1.0 5.0 0.00 0.00 0.00 59 1022.7
20190217141702 29 152 1.0 5.0 0.00 0.00 0.00 64 1023.0
20190217140102 28 355 0.0 2.0 0.00 0.00 0.00 66 1023.6
20190217134555 27 346 0.0 4.0 0.00 0.00 0.00 68 1024.7
20190217133044 26 346 2.0 4.0 0.00 0.00 0.00 70 1024.3
20190217131541 25 346 1.0 5.0 0.00 0.00 0.00 74 1023.9
20190217130046 23 344 2.0 4.0 0.00 0.00 0.00 79 1023.7
20190217124531 22 65 0.0 0.0 0.00 0.00 0.00 82 1023.3
20190217123028 21 65 0.0 0.0 0.00 0.00 0.00 82 1022.9
20190217121538 21 65 0.0 0.0 0.00 0.00 0.00 81 1022.8
20190217120028 22 65 0.0 0.0 0.00 0.00 0.00 79 1022.8
20190217114514 22 65 0.0 0.0 0.00 0.00 0.00 77 1022.6
20190217113032 23 65 0.0 0.0 0.00 0.00 0.00 76 1022.6
20190217111505 23 65 0.0 2.0 0.00 0.00 0.00 74 1021.9
20190217110233 24 65 0.0 2.0 0.00 0.00 0.00 72 1020.9
20190217104703 24 65 0.0 3.0 0.00 0.00 0.00 71 1020.9
20190217103138 25 59 0.0 3.0 0.00 0.00 0.00 70 1021.0
20190217101708 25 360 0.0 3.0 0.00 0.00 0.00 70 1021.6
20190217100201 25 360 2.0 5.0 0.00 0.00 0.00 69 1021.5
20190217094920 25 301 1.0 6.0 0.00 0.00 0.00 69 1021.3
20190217093113 25 339 2.0 5.0 0.00 0.00 0.00 70 1021.2
20190217091712 25 86 1.0 8.0 0.00 0.00 0.00 70 1021.0
20190217090220 26 322 0.0 5.0 0.00 0.00 0.00 69 1021.1
20190217084653 26 321 0.0 4.0 0.00 0.00 0.00 68 1021.1
20190217083154 26 316 2.0 9.0 0.00 0.00 0.00 68 1021.2
20190217081707 26 344 4.0 15.0 0.00 0.00 0.00 68 1020.9
20190217080132 26 348 0.0 6.0 0.00 0.00 0.00 67 1020.8
20190217074637 26 314 1.0 8.0 0.00 0.00 0.00 67 1020.8
20190217073105 27 350 0.0 3.0 0.00 0.00 0.00 67 1020.8
20190217071556 27 350 2.0 5.0 0.00 0.00 0.00 66 1020.7
20190217070058 27 350 1.0 5.0 0.00 0.00 0.00 66 1020.8
20190217064613 27 340 0.0 3.0 0.00 0.00 0.00 66 1021.1
20190217063055 28 338 1.0 5.0 0.00 0.00 0.00 65 1020.9
20190217061600 28 336 2.0 5.0 0.00 0.00 0.00 65 1020.9
20190217060048 28 329 2.0 8.0 0.00 0.00 0.00 64 1020.7
20190217054540 28 348 2.0 8.0 0.00 0.00 0.00 64 1020.8
20190217053033 29 348 3.0 9.0 0.00 0.00 0.00 64 1020.9
20190217051529 29 342 3.0 6.0 0.00 0.00 0.00 64 1020.4
20190217050026 29 311 2.0 5.0 0.00 0.00 0.00 63 1020.6
20190217044552 29 340 1.0 4.0 0.00 0.00 0.00 63 1020.7
20190217043021 29 331 3.0 6.0 0.00 0.00 0.00 62 1020.2
20190217041515 29 341 0.0 5.0 0.00 0.00 0.00 62 1020.1
20190217040009 30 341 3.0 4.0 0.00 0.00 0.00 61 1019.9
20190217034506 30 341 1.0 3.0 0.00 0.00 0.00 61 1019.6
20190217033004 30 355 0.0 4.0 0.00 0.00 0.00 60 1019.5
20190217031720 31 350 1.0 7.0 0.00 0.00 0.00 60 1019.1
20190217030154 31 336 2.0 10.0 0.00 0.00 0.00 60 1018.8
20190217024639 31 318 2.0 8.0 0.00 0.00 0.00 59 1018.6
20190217023137 31 323 3.0 8.0 0.00 0.00 0.00 59 1018.6
20190217021613 32 329 4.0 14.0 0.00 0.00 0.00 59 1018.2
20190217020306 32 360 3.0 9.0 0.00 0.00 0.00 60 1018.2
20190217014627 33 333 0.0 2.0 0.00 0.00 0.00 59 1018.0
20190217013115 33 333 0.0 5.0 0.00 0.00 0.00 57 1017.7
20190217011628 34 333 2.0 4.0 0.00 0.00 0.00 56 1017.4
20190217010103 34 333 3.0 9.0 0.00 0.00 0.00 55 1017.1
20190217004619 35 345 5.0 11.0 0.00 0.00 0.00 53 1017.1
20190217003103 35 337 5.0 11.0 0.00 0.00 0.00 53 1016.9
20190217001626 35 327 2.0 10.0 0.00 0.00 0.00 53 1016.9
20190217000159 36 336 2.0 8.0 0.00 0.00 0.00 52 1016.8
20190216234559 37 16 2.0 6.0 0.00 0.00 0.00 51 1016.7
20190216233133 37 346 0.0 5.0 0.00 0.00 0.00 51 1016.4
20190216231604 37 355 2.0 9.0 0.00 0.00 0.00 50 1016.2
20190216230131 38 360 1.0 6.0 0.00 0.00 0.00 49 1015.9
20190216224545 39 326 3.0 9.0 0.00 0.00 0.00 48 1015.7
20190216223034 40 346 1.0 5.0 0.00 0.00 0.00 48 1015.5
20190216221530 40 335 1.0 10.0 0.00 0.00 0.00 48 1015.2
20190216220035 41 47 3.0 10.0 0.00 0.00 0.00 46 1014.8
20190216214525 42 355 2.0 10.0 0.00 0.00 0.00 46 1014.5
20190216213036 42 346 5.0 10.0 0.00 0.00 0.00 45 1014.4
20190216211608 43 319 4.0 12.0 0.00 0.00 0.00 43 1014.2
20190216210048 43 355 5.0 13.0 0.00 0.00 0.00 44 1014.0
20190216204540 43 332 4.0 14.0 0.00 0.00 0.00 44 1013.9
20190216203019 44 331 3.0 12.0 0.00 0.00 0.00 43 1014.0
20190216201520 44 314 4.0 10.0 0.00 0.00 0.00 43 1013.7
20190216200055 43 314 4.0 15.0 0.00 0.00 0.00 44 1013.7
20190216194535 44 324 3.0 12.0 0.00 0.00 0.00 43 1013.3
20190216193037 44 302 4.0 11.0 0.00 0.00 0.00 43 1013.2
20190216191529 44 307 2.0 11.0 0.00 0.00 0.00 44 1013.2
20190216190019 43 298 5.0 12.0 0.00 0.00 0.00 44 1013.4
20190216184512 43 212 4.0 8.0 0.00 0.00 0.00 44 1013.3
20190216183025 43 327 4.0 9.0 0.00 0.00 0.00 44 1013.6
20190216181547 42 303 0.0 9.0 0.00 0.00 0.00 46 1013.6
20190216174508 42 329 3.0 11.0 0.00 0.00 0.00 45 1013.6
20190216173009 42 333 5.0 13.0 0.00 0.00 0.00 44 1013.6
20190216171507 41 347 2.0 14.0 0.00 0.00 0.00 46 1013.7
20190216170016 41 336 4.0 13.0 0.00 0.00 0.00 46 1014.0
20190216164504 40 324 7.0 13.0 0.00 0.01 0.00 47 1014.3
20190216163010 40 340 5.0 13.0 0.00 0.01 0.00 46 1014.4
20190216161503 40 70 5.0 13.0 0.00 0.01 0.00 46 1014.5
20190216160003 40 342 5.0 14.0 0.00 0.02 0.00 48 1014.7